Time;durP1;ratioP1;P1;durP2;ratioP2;P2;SDS_P1;SDS_P2;PMS_P1;PMS_P2;Temp;Humidity;BMP_temperature;BMP_pressure;BME280_temperature;BME280_humidity;BME280_pressure;Samples;Min_cycle;Max_cycle;Signal;HPM_P1;HPM_P2
2022/08/28 00:04:55;;;;;;;44.85;10.30;;;;;;;;;;10300052;28;20067;-65
2022/08/28 00:09:55;;;;;;;44.72;8.27;;;;;;;;;;10300419;28;20064;-65
2022/08/28 00:14:53;;;;;;;53.28;11.40;;;;;;;;;;10300507;28;20076;-65
2022/08/28 00:19:52;;;;;;;42.28;8.90;;;;;;;;;;10281483;28;20041;-65
2022/08/28 00:24:50;;;;;;;48.05;8.60;;;;;;;;;;10314405;28;20052;-65
2022/08/28 00:29:53;;;;;;;57.80;8.13;;;;;;;;;;10314095;28;20087;-65
2022/08/28 00:34:52;;;;;;;53.65;10.75;;;;;;;;;;10295748;28;20076;-65
2022/08/28 00:39:50;;;;;;;35.35;8.32;;;;;;;;;;10302585;28;20053;-65
2022/08/28 00:44:48;;;;;;;52.10;9.43;;;;;;;;;;10301119;28;20083;-66
2022/08/28 00:49:51;;;;;;;47.33;8.80;;;;;;;;;;10281467;28;20079;-66
2022/08/28 00:54:51;;;;;;;43.03;8.48;;;;;;;;;;10287090;28;20080;-66
2022/08/28 00:59:56;;;;;;;39.88;8.38;;;;;;;;;;10285842;28;20537;-65
2022/08/28 01:04:56;;;;;;;35.80;7.53;;;;;;;;;;10305294;28;20426;-66
2022/08/28 01:09:54;;;;;;;48.03;9.60;;;;;;;;;;10301794;28;20493;-65
2022/08/28 01:14:54;;;;;;;40.45;7.30;;;;;;;;;;10299421;28;20077;-65
2022/08/28 01:19:57;;;;;;;42.17;9.77;;;;;;;;;;10304655;28;20053;-65
2022/08/28 01:24:58;;;;;;;49.75;8.63;;;;;;;;;;10311815;28;20075;-64
2022/08/28 01:29:57;;;;;;;54.28;9.07;;;;;;;;;;10303300;28;20076;-67
2022/08/28 01:34:55;;;;;;;46.42;8.35;;;;;;;;;;10307238;28;20091;-67
2022/08/28 01:39:54;;;;;;;46.33;8.70;;;;;;;;;;10288944;28;20517;-67
2022/08/28 01:44:53;;;;;;;45.78;8.10;;;;;;;;;;10304934;28;20067;-66
2022/08/28 01:49:52;;;;;;;41.13;9.73;;;;;;;;;;10305941;28;20079;-67
2022/08/28 01:54:50;;;;;;;53.10;8.32;;;;;;;;;;10301145;28;20083;-67
2022/08/28 01:59:49;;;;;;;42.28;9.93;;;;;;;;;;10303455;28;20056;-66
2022/08/28 02:04:49;;;;;;;35.20;8.02;;;;;;;;;;10292315;28;20080;-66
2022/08/28 02:09:48;;;;;;;44.30;9.70;;;;;;;;;;10298604;28;20103;-66
2022/08/28 02:14:46;;;;;;;40.22;9.30;;;;;;;;;;10303174;28;20067;-66
2022/08/28 02:19:44;;;;;;;58.97;11.68;;;;;;;;;;10304728;28;20060;-65
2022/08/28 02:24:44;;;;;;;45.78;7.72;;;;;;;;;;10303739;28;20079;-67
2022/08/28 02:29:42;;;;;;;34.28;8.93;;;;;;;;;;10284222;28;20082;-66
2022/08/28 02:34:42;;;;;;;47.80;11.02;;;;;;;;;;10301252;28;20074;-66
2022/08/28 02:39:41;;;;;;;55.10;9.52;;;;;;;;;;10301687;28;20462;-66
2022/08/28 02:44:41;;;;;;;43.05;8.15;;;;;;;;;;10303185;28;20083;-67
2022/08/28 02:49:39;;;;;;;46.08;9.07;;;;;;;;;;10300037;28;20080;-66
2022/08/28 02:54:38;;;;;;;38.70;9.48;;;;;;;;;;10303288;28;20072;-66
2022/08/28 02:59:37;;;;;;;44.33;9.65;;;;;;;;;;10316471;28;20048;-67
2022/08/28 03:04:37;;;;;;;41.35;9.30;;;;;;;;;;10316309;28;20045;-67
2022/08/28 03:09:36;;;;;;;41.22;9.85;;;;;;;;;;10308001;28;20067;-66
2022/08/28 03:14:34;;;;;;;43.97;9.00;;;;;;;;;;10301952;28;20509;-66
2022/08/28 03:19:33;;;;;;;43.30;7.97;;;;;;;;;;10301541;28;20060;-66
2022/08/28 03:24:32;;;;;;;35.63;7.65;;;;;;;;;;10299812;28;20044;-66
2022/08/28 03:29:31;;;;;;;38.67;8.30;;;;;;;;;;10298657;28;20078;-66
2022/08/28 03:34:29;;;;;;;44.50;8.73;;;;;;;;;;10300975;28;20071;-66
2022/08/28 03:39:28;;;;;;;47.70;9.10;;;;;;;;;;10299610;28;20083;-67
2022/08/28 03:44:28;;;;;;;41.38;8.68;;;;;;;;;;10296536;28;20064;-67
2022/08/28 03:49:26;;;;;;;51.28;9.25;;;;;;;;;;10319953;28;20473;-67
2022/08/28 03:54:25;;;;;;;35.08;8.45;;;;;;;;;;10338531;28;20068;-67
2022/08/28 03:59:23;;;;;;;40.30;9.07;;;;;;;;;;10341927;28;20090;-67
2022/08/28 04:04:32;;;;;;;46.72;8.43;;;;;;;;;;10342012;28;20060;-67
2022/08/28 04:09:30;;;;;;;35.22;10.63;;;;;;;;;;10342058;28;20493;-67
2022/08/28 04:14:28;;;;;;;35.10;8.25;;;;;;;;;;10341604;28;20075;-67
2022/08/28 04:19:26;;;;;;;51.03;9.27;;;;;;;;;;10341362;28;20078;-66
2022/08/28 04:24:26;;;;;;;45.08;11.13;;;;;;;;;;10340474;28;20114;-67
2022/08/28 04:29:24;;;;;;;34.47;9.27;;;;;;;;;;10340198;28;20182;-66
2022/08/28 04:34:23;;;;;;;47.05;10.82;;;;;;;;;;10352310;28;20075;-67
2022/08/28 04:39:21;;;;;;;33.42;8.38;;;;;;;;;;10355073;28;20040;-66
2022/08/28 04:44:20;;;;;;;36.78;7.50;;;;;;;;;;10353790;28;20056;-66
2022/08/28 04:49:19;;;;;;;28.90;8.65;;;;;;;;;;10329746;28;20072;-67
2022/08/28 04:54:19;;;;;;;55.65;9.10;;;;;;;;;;10341276;28;20064;-67
2022/08/28 04:59:17;;;;;;;42.10;9.10;;;;;;;;;;10344773;28;20083;-67
2022/08/28 05:04:18;;;;;;;34.63;9.95;;;;;;;;;;10348400;28;20078;-66
2022/08/28 05:09:17;;;;;;;39.13;9.60;;;;;;;;;;10354368;28;20083;-66
2022/08/28 05:14:16;;;;;;;30.38;8.82;;;;;;;;;;10354941;28;20071;-66
2022/08/28 05:19:14;;;;;;;33.92;8.23;;;;;;;;;;10354857;28;20059;-66
2022/08/28 05:24:14;;;;;;;29.83;9.10;;;;;;;;;;10353409;28;20130;-66
2022/08/28 05:29:12;;;;;;;29.85;7.20;;;;;;;;;;10353396;28;20063;-66
2022/08/28 05:34:11;;;;;;;40.72;8.15;;;;;;;;;;10351375;28;20448;-66
2022/08/28 05:39:10;;;;;;;35.53;8.40;;;;;;;;;;10345930;28;20064;-66
2022/08/28 05:44:11;;;;;;;28.52;7.85;;;;;;;;;;10351940;28;20079;-66
2022/08/28 05:49:09;;;;;;;41.00;8.60;;;;;;;;;;10350308;28;20079;-66
2022/08/28 05:54:08;;;;;;;35.53;8.07;;;;;;;;;;10349009;28;20192;-66
2022/08/28 05:59:06;;;;;;;30.90;7.45;;;;;;;;;;10350152;28;20060;-66
2022/08/28 06:04:07;;;;;;;43.17;7.95;;;;;;;;;;10350608;28;20078;-67
2022/08/28 06:09:07;;;;;;;40.42;10.82;;;;;;;;;;10352864;28;20063;-66
2022/08/28 06:14:08;;;;;;;32.58;8.43;;;;;;;;;;10352278;28;20114;-66
2022/08/28 06:19:09;;;;;;;40.28;8.68;;;;;;;;;;10346898;28;20040;-67
2022/08/28 06:24:07;;;;;;;26.27;7.78;;;;;;;;;;10343678;28;20072;-66
2022/08/28 06:29:07;;;;;;;40.38;9.32;;;;;;;;;;10345698;28;20059;-67
2022/08/28 06:34:05;;;;;;;36.90;8.48;;;;;;;;;;10345108;28;20090;-66
2022/08/28 06:39:06;;;;;;;38.25;7.50;;;;;;;;;;10343965;28;20059;-66
2022/08/28 06:44:04;;;;;;;32.22;10.27;;;;;;;;;;10348889;28;20066;-67
2022/08/28 06:49:03;;;;;;;38.00;10.07;;;;;;;;;;10354235;28;20076;-67
2022/08/28 06:54:02;;;;;;;40.22;7.82;;;;;;;;;;10356764;28;20071;-66
2022/08/28 06:59:01;;;;;;;57.95;9.80;;;;;;;;;;10355157;28;20063;-66
2022/08/28 07:04:01;;;;;;;31.02;8.07;;;;;;;;;;10348203;28;20059;-67
2022/08/28 07:08:59;;;;;;;39.05;8.40;;;;;;;;;;10344285;28;20075;-67
2022/08/28 07:13:58;;;;;;;38.05;8.23;;;;;;;;;;10342120;28;20079;-67
2022/08/28 07:18:57;;;;;;;30.73;7.00;;;;;;;;;;10341465;28;20485;-67
2022/08/28 07:23:56;;;;;;;34.80;8.13;;;;;;;;;;10326242;28;20043;-67
2022/08/28 07:28:55;;;;;;;37.17;9.20;;;;;;;;;;10338832;28;20068;-67
2022/08/28 07:34:10;;;;;;;34.55;7.85;;;;;;;;;;10336918;28;20086;-66
2022/08/28 07:39:09;;;;;;;28.08;8.02;;;;;;;;;;10316016;28;20071;-67
2022/08/28 07:49:26;;;;;;;44.67;11.02;;;;;;;;;;10347723;28;20078;-67
2022/08/28 07:54:24;;;;;;;27.05;7.55;;;;;;;;;;10348603;28;20346;-66
2022/08/28 07:59:22;;;;;;;38.78;8.70;;;;;;;;;;10338692;28;20059;-67
2022/08/28 08:04:22;;;;;;;33.65;7.05;;;;;;;;;;10340520;28;20078;-67
2022/08/28 08:09:21;;;;;;;39.35;9.00;;;;;;;;;;10333931;28;20075;-67
2022/08/28 08:14:20;;;;;;;28.92;7.57;;;;;;;;;;10335238;28;20072;-67
2022/08/28 08:19:19;;;;;;;33.00;8.52;;;;;;;;;;10335626;28;20063;-67
2022/08/28 08:24:19;;;;;;;36.25;7.80;;;;;;;;;;10335723;28;20064;-68
2022/08/28 08:29:19;;;;;;;22.35;6.20;;;;;;;;;;10338683;28;20047;-66
2022/08/28 08:34:18;;;;;;;30.98;7.88;;;;;;;;;;10348817;28;20506;-67
2022/08/28 08:39:16;;;;;;;36.22;9.15;;;;;;;;;;10348726;28;20506;-68
2022/08/28 08:44:22;;;;;;;41.00;7.63;;;;;;;;;;10349537;28;20071;-67
2022/08/28 08:49:32;;;;;;;33.30;8.07;;;;;;;;;;10322903;28;20076;-67
2022/08/28 08:54:31;;;;;;;32.28;8.02;;;;;;;;;;10304750;28;20072;-67
2022/08/28 08:59:33;;;;;;;36.75;7.65;;;;;;;;;;10301639;28;20072;-67
2022/08/28 09:04:35;;;;;;;37.87;7.90;;;;;;;;;;10303003;28;20060;-67
2022/08/28 09:09:35;;;;;;;43.95;9.13;;;;;;;;;;10305327;28;20068;-67
2022/08/28 09:14:45;;;;;;;27.30;8.07;;;;;;;;;;10304830;28;20075;-67
2022/08/28 09:19:43;;;;;;;40.45;10.23;;;;;;;;;;10303675;28;20075;-67
2022/08/28 09:24:42;;;;;;;31.70;7.35;;;;;;;;;;10303598;28;20087;-67
2022/08/28 09:29:42;;;;;;;41.17;14.18;;;;;;;;;;10302725;28;20139;-67
2022/08/28 09:34:58;;;;;;;26.10;5.82;;;;;;;;;;10302089;28;20080;-67
2022/08/28 09:40:12;;;;;;;26.73;7.85;;;;;;;;;;10303635;28;20069;-67
2022/08/28 09:45:17;;;;;;;20.25;6.38;;;;;;;;;;10303745;28;20060;-66
2022/08/28 09:50:33;;;;;;;21.05;5.90;;;;;;;;;;10264339;28;1151051;-67
2022/08/28 09:55:35;;;;;;;11.80;4.93;;;;;;;;;;10306177;28;20083;-67
2022/08/28 10:00:37;;;;;;;32.45;5.45;;;;;;;;;;10304899;28;20059;-67
2022/08/28 10:05:40;;;;;;;21.63;6.25;;;;;;;;;;10304028;28;20479;-67
2022/08/28 10:10:41;;;;;;;20.42;5.63;;;;;;;;;;10304637;28;20080;-67
2022/08/28 10:15:49;;;;;;;26.15;8.20;;;;;;;;;;10305289;28;20076;-67
2022/08/28 10:20:51;;;;;;;17.52;5.30;;;;;;;;;;10304825;28;20043;-67
2022/08/28 10:25:53;;;;;;;25.77;5.85;;;;;;;;;;10305059;28;20521;-66
2022/08/28 10:30:58;;;;;;;20.45;5.60;;;;;;;;;;10304807;28;20506;-66
2022/08/28 10:36:01;;;;;;;10.85;4.47;;;;;;;;;;10303326;28;20510;-66
2022/08/28 10:41:01;;;;;;;23.10;5.50;;;;;;;;;;10303260;28;20044;-66
2022/08/28 10:46:03;;;;;;;23.58;5.78;;;;;;;;;;10302826;28;20426;-68
2022/08/28 10:51:04;;;;;;;23.20;5.50;;;;;;;;;;10301979;28;20053;-66
2022/08/28 10:56:04;;;;;;;17.60;6.80;;;;;;;;;;10303722;28;20068;-67
2022/08/28 11:01:05;;;;;;;18.27;5.70;;;;;;;;;;10302000;28;20067;-67
2022/08/28 11:06:10;;;;;;;18.70;6.03;;;;;;;;;;10301279;28;20103;-67
2022/08/28 11:11:12;;;;;;;15.63;5.57;;;;;;;;;;10302134;28;20033;-67
2022/08/28 11:16:17;;;;;;;20.40;5.35;;;;;;;;;;10300665;28;20069;-67
2022/08/28 11:21:20;;;;;;;22.10;4.68;;;;;;;;;;10301213;28;20064;-66
2022/08/28 11:26:24;;;;;;;17.30;4.57;;;;;;;;;;10301835;28;20121;-66
2022/08/28 11:31:35;;;;;;;18.70;4.72;;;;;;;;;;10297731;28;20548;-67
2022/08/28 11:36:52;;;;;;;21.92;5.43;;;;;;;;;;10310612;28;20083;-67
2022/08/28 11:42:08;;;;;;;19.13;4.25;;;;;;;;;;10309516;28;20068;-66
2022/08/28 11:47:24;;;;;;;24.20;6.38;;;;;;;;;;10314178;28;20071;-67
2022/08/28 11:52:37;;;;;;;19.02;4.47;;;;;;;;;;10287203;28;20089;-67
2022/08/28 11:57:45;;;;;;;14.87;5.13;;;;;;;;;;10299167;28;20075;-67
2022/08/28 12:03:01;;;;;;;19.95;4.95;;;;;;;;;;10295832;28;20037;-67
2022/08/28 12:08:02;;;;;;;16.85;5.28;;;;;;;;;;10299873;28;20068;-67
2022/08/28 12:13:03;;;;;;;27.37;5.50;;;;;;;;;;10299237;28;20071;-67
2022/08/28 12:18:02;;;;;;;26.65;9.25;;;;;;;;;;10299012;28;20481;-67
2022/08/28 12:23:04;;;;;;;25.35;5.03;;;;;;;;;;10299505;28;20068;-67
2022/08/28 12:28:05;;;;;;;24.33;5.38;;;;;;;;;;10299814;28;20529;-67
2022/08/28 12:33:15;;;;;;;27.25;7.68;;;;;;;;;;10297875;28;20275;-67
2022/08/28 12:38:18;;;;;;;17.77;5.70;;;;;;;;;;10297178;28;20068;-67
2022/08/28 12:43:29;;;;;;;21.17;5.45;;;;;;;;;;10297844;28;20077;-66
2022/08/28 12:48:30;;;;;;;20.60;4.30;;;;;;;;;;10299435;28;20418;-67
2022/08/28 12:53:36;;;;;;;20.20;5.45;;;;;;;;;;10299876;28;20067;-67
2022/08/28 12:58:36;;;;;;;23.50;4.60;;;;;;;;;;10298947;28;20068;-67
2022/08/28 13:03:34;;;;;;;21.48;4.35;;;;;;;;;;10298938;28;20510;-67
2022/08/28 13:08:35;;;;;;;21.42;5.63;;;;;;;;;;10299447;28;20079;-67
2022/08/28 13:13:35;;;;;;;22.60;5.15;;;;;;;;;;10299204;28;20140;-67
2022/08/28 13:18:35;;;;;;;15.75;4.75;;;;;;;;;;10306166;28;20072;-67
2022/08/28 13:23:34;;;;;;;21.35;4.90;;;;;;;;;;10306718;28;20495;-67
2022/08/28 13:28:35;;;;;;;22.75;6.03;;;;;;;;;;10305549;28;20071;-66
2022/08/28 13:33:33;;;;;;;19.13;5.78;;;;;;;;;;10304699;28;20068;-68
2022/08/28 13:38:34;;;;;;;19.52;5.18;;;;;;;;;;10319174;28;20067;-68
2022/08/28 13:43:43;;;;;;;21.88;6.55;;;;;;;;;;10318772;28;20072;-66
2022/08/28 13:48:41;;;;;;;22.58;5.32;;;;;;;;;;10315088;28;20087;-67
2022/08/28 13:53:40;;;;;;;24.58;5.97;;;;;;;;;;10301554;28;20068;-66
2022/08/28 13:58:38;;;;;;;22.02;4.63;;;;;;;;;;10302361;28;20532;-67
2022/08/28 14:03:38;;;;;;;23.52;5.18;;;;;;;;;;10299382;28;20079;-68
2022/08/28 14:08:36;;;;;;;20.63;5.72;;;;;;;;;;10301139;28;20210;-68
2022/08/28 14:13:34;;;;;;;17.15;5.40;;;;;;;;;;10299245;28;20072;-67
2022/08/28 14:18:33;;;;;;;18.38;5.45;;;;;;;;;;10302416;28;20471;-68
2022/08/28 14:23:33;;;;;;;11.82;4.30;;;;;;;;;;10302433;28;20072;-66
2022/08/28 14:28:31;;;;;;;18.38;5.70;;;;;;;;;;10301235;28;20384;-68
2022/08/28 14:33:29;;;;;;;16.92;5.10;;;;;;;;;;10288887;28;20043;-68
2022/08/28 14:38:35;;;;;;;18.27;5.95;;;;;;;;;;10302803;28;20473;-68
2022/08/28 14:43:33;;;;;;;16.55;5.53;;;;;;;;;;10302553;28;20458;-68
2022/08/28 14:48:31;;;;;;;16.08;5.43;;;;;;;;;;10306110;28;20122;-67
2022/08/28 14:53:30;;;;;;;21.42;6.97;;;;;;;;;;10310615;28;20478;-68
2022/08/28 14:58:31;;;;;;;21.88;5.22;;;;;;;;;;10311606;28;20072;-68
2022/08/28 15:03:29;;;;;;;24.42;5.80;;;;;;;;;;10302128;28;20087;-68
2022/08/28 15:08:27;;;;;;;21.23;6.65;;;;;;;;;;10300097;28;20461;-68
2022/08/28 15:13:26;;;;;;;16.25;6.07;;;;;;;;;;10300969;28;20064;-68
2022/08/28 15:18:30;;;;;;;19.30;6.53;;;;;;;;;;10296925;28;20075;-68
2022/08/28 15:23:29;;;;;;;26.20;6.70;;;;;;;;;;10297714;28;20067;-68
2022/08/28 15:28:28;;;;;;;18.40;6.65;;;;;;;;;;10297988;28;20083;-68
2022/08/28 15:33:26;;;;;;;24.08;8.65;;;;;;;;;;10298667;28;20064;-68
2022/08/28 15:38:26;;;;;;;24.30;9.35;;;;;;;;;;10300818;28;20076;-68
2022/08/28 15:43:24;;;;;;;23.33;8.45;;;;;;;;;;10299039;28;20067;-68
2022/08/28 15:48:23;;;;;;;22.23;10.75;;;;;;;;;;10296485;28;20076;-67
2022/08/28 15:53:21;;;;;;;22.33;8.50;;;;;;;;;;10301147;28;20525;-68
2022/08/28 15:58:21;;;;;;;19.23;5.47;;;;;;;;;;10301128;28;20075;-67
2022/08/28 16:03:21;;;;;;;20.13;5.38;;;;;;;;;;10298306;28;20068;-68
2022/08/28 16:08:19;;;;;;;18.52;5.78;;;;;;;;;;10299854;28;20466;-68
2022/08/28 16:13:18;;;;;;;17.92;7.28;;;;;;;;;;10300008;28;20080;-68
2022/08/28 16:18:21;;;;;;;16.95;6.72;;;;;;;;;;10300048;28;20080;-68
2022/08/28 16:23:20;;;;;;;23.27;6.65;;;;;;;;;;10300226;28;20075;-69
2022/08/28 16:28:18;;;;;;;13.95;5.90;;;;;;;;;;10300745;28;20079;-65
2022/08/28 16:33:19;;;;;;;22.85;8.02;;;;;;;;;;10299579;28;20060;-66
2022/08/28 16:38:20;;;;;;;23.42;7.57;;;;;;;;;;10297072;28;20060;-65
2022/08/28 16:43:19;;;;;;;23.00;7.40;;;;;;;;;;10281531;28;20088;-65
2022/08/28 16:48:17;;;;;;;18.83;8.02;;;;;;;;;;10314835;28;20072;-66
2022/08/28 16:53:16;;;;;;;16.33;6.80;;;;;;;;;;10322063;28;20071;-66
2022/08/28 16:58:25;;;;;;;18.30;6.70;;;;;;;;;;10312320;28;20076;-66
2022/08/28 17:03:24;;;;;;;23.23;11.32;;;;;;;;;;10302208;28;20072;-66
2022/08/28 17:08:24;;;;;;;29.02;7.82;;;;;;;;;;10306767;28;20460;-67
2022/08/28 17:13:22;;;;;;;19.73;6.93;;;;;;;;;;10303949;28;20433;-66
2022/08/28 17:18:23;;;;;;;27.08;7.53;;;;;;;;;;10306252;28;20072;-65
2022/08/28 17:23:22;;;;;;;20.30;8.02;;;;;;;;;;10306089;28;20068;-66
2022/08/28 17:28:20;;;;;;;22.98;8.10;;;;;;;;;;10304608;28;20060;-66
2022/08/28 17:33:18;;;;;;;16.25;6.72;;;;;;;;;;10305522;28;20095;-66
2022/08/28 17:38:18;;;;;;;18.75;7.05;;;;;;;;;;10305032;28;20784;-66
2022/08/28 17:43:17;;;;;;;23.98;8.15;;;;;;;;;;10305656;28;20154;-68
2022/08/28 17:48:16;;;;;;;13.90;8.38;;;;;;;;;;10304658;28;20076;-66
2022/08/28 17:53:15;;;;;;;19.83;9.57;;;;;;;;;;10304594;28;20086;-67
2022/08/28 17:58:15;;;;;;;15.40;7.47;;;;;;;;;;10304430;28;20091;-66
2022/08/28 18:03:14;;;;;;;25.13;10.77;;;;;;;;;;10304613;28;20164;-66
2022/08/28 18:08:15;;;;;;;18.88;6.60;;;;;;;;;;10305439;28;20067;-66
2022/08/28 18:13:13;;;;;;;24.33;7.60;;;;;;;;;;10303868;28;20076;-67
2022/08/28 18:18:13;;;;;;;13.00;6.13;;;;;;;;;;10302620;28;20075;-65
2022/08/28 18:23:12;;;;;;;20.70;7.10;;;;;;;;;;10303424;28;20068;-66
2022/08/28 18:28:14;;;;;;;13.40;6.38;;;;;;;;;;10303563;28;20041;-67
2022/08/28 18:33:21;;;;;;;17.77;6.72;;;;;;;;;;10314982;28;20067;-66
2022/08/28 18:38:26;;;;;;;17.63;7.40;;;;;;;;;;10301132;28;20366;-67
2022/08/28 18:43:28;;;;;;;17.45;7.40;;;;;;;;;;10300223;28;20067;-67
2022/08/28 18:48:36;;;;;;;16.60;8.45;;;;;;;;;;10301997;28;20075;-67
2022/08/28 18:53:35;;;;;;;18.40;6.90;;;;;;;;;;10309274;28;20068;-65
2022/08/28 18:58:33;;;;;;;22.98;6.60;;;;;;;;;;10312599;28;20072;-66
2022/08/28 19:03:36;;;;;;;20.15;7.15;;;;;;;;;;10306326;28;20076;-65
2022/08/28 19:08:37;;;;;;;;;;;;;;;;;;10310062;28;20060;-65
2022/08/28 19:13:36;;;;;;;18.15;8.73;;;;;;;;;;10287602;28;19921;-65
2022/08/28 19:18:36;;;;;;;15.75;6.43;;;;;;;;;;10305976;28;20067;-65
2022/08/28 19:23:34;;;;;;;15.55;6.60;;;;;;;;;;10305593;28;20071;-65
2022/08/28 19:28:32;;;;;;;18.65;6.07;;;;;;;;;;10306535;28;20052;-65
2022/08/28 19:33:31;;;;;;;31.35;13.55;;;;;;;;;;10311011;28;20060;-66
2022/08/28 19:38:31;;;;;;;30.08;17.05;;;;;;;;;;10300982;28;20068;-65
2022/08/28 19:43:29;;;;;;;24.40;10.98;;;;;;;;;;10301301;28;20446;-65
2022/08/28 19:48:40;;;;;;;22.40;7.40;;;;;;;;;;10302950;28;20087;-66
2022/08/28 19:53:40;;;;;;;17.92;6.40;;;;;;;;;;10303366;28;20064;-66
2022/08/28 19:58:38;;;;;;;17.65;6.43;;;;;;;;;;10298656;28;20071;-66
2022/08/28 20:03:38;;;;;;;20.23;7.30;;;;;;;;;;10298463;28;20103;-66
2022/08/28 20:08:36;;;;;;;23.63;7.63;;;;;;;;;;10311877;28;20064;-66
2022/08/28 20:13:36;;;;;;;19.30;5.88;;;;;;;;;;10310063;28;20087;-66
2022/08/28 20:18:34;;;;;;;23.17;6.28;;;;;;;;;;10293646;28;20072;-66
2022/08/28 20:23:32;;;;;;;12.52;6.50;;;;;;;;;;10311907;28;20067;-67
2022/08/28 20:28:31;;;;;;;13.70;5.53;;;;;;;;;;10320042;28;20470;-65
2022/08/28 20:33:31;;;;;;;15.07;6.25;;;;;;;;;;10302003;28;20477;-67
2022/08/28 20:38:31;;;;;;;22.85;6.18;;;;;;;;;;10317109;28;20072;-66
2022/08/28 20:43:31;;;;;;;22.67;5.53;;;;;;;;;;10307336;28;20071;-66
2022/08/28 20:48:31;;;;;;;18.23;5.70;;;;;;;;;;10303780;28;20076;-66
2022/08/28 20:53:30;;;;;;;20.70;5.32;;;;;;;;;;10306812;28;20075;-66
2022/08/28 20:58:34;;;;;;;18.25;5.60;;;;;;;;;;10307125;28;20075;-66
2022/08/28 21:03:34;;;;;;;27.05;7.10;;;;;;;;;;10304703;28;20409;-65
2022/08/28 21:08:32;;;;;;;20.10;6.20;;;;;;;;;;10305095;28;20383;-66
2022/08/28 21:13:31;;;;;;;23.00;6.45;;;;;;;;;;10306826;28;20476;-66
2022/08/28 21:18:29;;;;;;;18.23;6.18;;;;;;;;;;10316691;28;20490;-65
2022/08/28 21:23:29;;;;;;;22.50;6.05;;;;;;;;;;10319525;28;20060;-66
2022/08/28 21:28:28;;;;;;;21.15;5.22;;;;;;;;;;10306146;28;20044;-65
2022/08/28 21:33:26;;;;;;;20.20;6.10;;;;;;;;;;10301649;28;20048;-67
2022/08/28 21:38:24;;;;;;;27.73;5.78;;;;;;;;;;10306906;28;20158;-66
2022/08/28 21:43:24;;;;;;;11.10;4.88;;;;;;;;;;10307951;28;20075;-65
2022/08/28 21:48:28;;;;;;;25.95;6.07;;;;;;;;;;10316936;28;20129;-66
2022/08/28 21:53:27;;;;;;;13.73;5.72;;;;;;;;;;10347361;28;20067;-66
2022/08/28 21:58:26;;;;;;;20.55;5.28;;;;;;;;;;10343137;28;20695;-66
2022/08/28 22:03:25;;;;;;;15.13;5.32;;;;;;;;;;10327143;28;20086;-65
2022/08/28 22:08:26;;;;;;;12.57;5.95;;;;;;;;;;10346826;28;20079;-65
2022/08/28 22:13:24;;;;;;;21.45;5.47;;;;;;;;;;10344926;28;20074;-65
2022/08/28 22:18:24;;;;;;;22.20;5.57;;;;;;;;;;10342070;28;20060;-65
2022/08/28 22:23:33;;;;;;;15.90;4.75;;;;;;;;;;10339765;28;20071;-65
2022/08/28 22:28:32;;;;;;;14.43;5.20;;;;;;;;;;10343302;28;20076;-65
2022/08/28 22:33:31;;;;;;;22.42;5.38;;;;;;;;;;10345458;28;20036;-66
2022/08/28 22:38:30;;;;;;;13.35;4.63;;;;;;;;;;10344300;28;20078;-65
2022/08/28 22:43:28;;;;;;;12.93;4.93;;;;;;;;;;10345318;28;20042;-65
2022/08/28 22:48:26;;;;;;;21.55;5.00;;;;;;;;;;10343544;28;20075;-65
2022/08/28 22:53:29;;;;;;;17.50;5.13;;;;;;;;;;10341320;28;20040;-64
2022/08/28 22:58:28;;;;;;;15.60;5.18;;;;;;;;;;10341055;28;20059;-65
2022/08/28 23:03:27;;;;;;;17.48;4.80;;;;;;;;;;10344434;28;20521;-65
2022/08/28 23:08:25;;;;;;;20.40;5.22;;;;;;;;;;10338615;28;20087;-67
2022/08/28 23:13:32;;;;;;;18.92;4.80;;;;;;;;;;10339942;28;20072;-66
2022/08/28 23:18:31;;;;;;;17.63;4.57;;;;;;;;;;10343759;28;20071;-65
2022/08/28 23:23:50;;;;;;;22.00;5.13;;;;;;;;;;10343994;28;20072;-65
2022/08/28 23:28:50;;;;;;;16.70;5.35;;;;;;;;;;10342788;28;20078;-64
2022/08/28 23:33:48;;;;;;;16.08;4.60;;;;;;;;;;10340102;28;20078;-65
2022/08/28 23:38:47;;;;;;;21.20;6.40;;;;;;;;;;10356898;28;20075;-64
2022/08/28 23:43:45;;;;;;;20.35;5.32;;;;;;;;;;10356659;28;20048;-65
2022/08/28 23:48:46;;;;;;;17.10;5.15;;;;;;;;;;10355756;28;20087;-65
2022/08/28 23:53:47;;;;;;;19.60;4.72;;;;;;;;;;10341549;28;20068;-65
2022/08/28 23:58:47;;;;;;;14.18;5.47;;;;;;;;;;10340732;28;20076;-64
